Time;durP1;ratioP1;P1;durP2;ratioP2;P2;SDS_P1;SDS_P2;PMS_P1;PMS_P2;Temp;Humidity;BMP_temperature;BMP_pressure;BME280_temperature;BME280_humidity;BME280_pressure;Samples;Min_cycle;Max_cycle;Signal;HPM_P1;HPM_P2
2022/10/11 00:01:11;;;;;;;;;;;11.20;99.90;;;;;;5036687;28;20404;-70
2022/10/11 00:03:37;;;;;;;;;;;11.10;99.90;;;;;;5036097;28;19969;-70
2022/10/11 00:06:04;;;;;;;;;;;11.10;99.90;;;;;;5036590;28;19955;-70
2022/10/11 00:08:30;;;;;;;;;;;11.10;99.90;;;;;;5036021;28;19948;-70
2022/10/11 00:10:59;;;;;;;;;;;11.20;99.90;;;;;;5036240;28;20003;-70
2022/10/11 00:13:25;;;;;;;;;;;11.20;99.90;;;;;;5035583;28;19999;-70
2022/10/11 00:15:51;;;;;;;;;;;11.20;99.90;;;;;;5036175;28;19945;-70
2022/10/11 00:18:16;;;;;;;;;;;11.20;99.90;;;;;;5036153;28;19909;-68
2022/10/11 00:20:42;;;;;;;;;;;11.10;99.90;;;;;;5035749;28;19930;-69
2022/10/11 00:23:07;;;;;;;;;;;11.00;99.90;;;;;;5036227;28;19916;-69
2022/10/11 00:25:33;;;;;;;;;;;11.00;99.90;;;;;;5034408;28;20357;-69
2022/10/11 00:27:58;;;;;;;;;;;11.00;99.90;;;;;;5035637;28;19905;-70
2022/10/11 00:30:24;;;;;;;;;;;11.00;99.90;;;;;;5035900;28;19917;-70
2022/10/11 00:32:49;;;;;;;;;;;10.90;99.90;;;;;;5035393;28;19917;-70
2022/10/11 00:35:15;;;;;;;;;;;10.70;99.90;;;;;;5035518;28;20004;-70
2022/10/11 00:37:41;;;;;;;;;;;10.70;99.90;;;;;;5035371;28;19967;-70
2022/10/11 00:40:08;;;;;;;;;;;10.60;99.90;;;;;;5034264;28;19909;-70
2022/10/11 00:42:34;;;;;;;;;;;10.70;99.90;;;;;;5033767;28;20369;-70
2022/10/11 00:45:18;;;;;;;;;;;10.70;99.90;;;;;;5035321;28;19960;-70
2022/10/11 00:47:44;;;;;;;;;;;10.70;99.90;;;;;;5035581;28;19996;-70
2022/10/11 00:50:10;;;;;;;;;;;10.70;99.90;;;;;;5035580;28;20021;-70
2022/10/11 00:52:46;;;;;;;;;;;10.70;99.90;;;;;;5035113;28;19996;-70
2022/10/11 00:55:14;;;;;;;;;;;10.70;99.90;;;;;;5035164;28;19905;-70
2022/10/11 00:57:41;;;;;;;;;;;10.60;99.90;;;;;;5035115;28;20304;-70
2022/10/11 01:00:11;;;;;;;;;;;10.50;99.90;;;;;;5035044;28;19904;-70
2022/10/11 01:02:37;;;;;;;;;;;10.50;99.90;;;;;;5035226;28;19905;-70
2022/10/11 01:05:04;;;;;;;;;;;10.50;99.90;;;;;;5034960;28;19905;-70
2022/10/11 01:07:30;;;;;;;;;;;10.50;99.90;;;;;;5035257;28;19951;-70
2022/10/11 01:09:56;;;;;;;;;;;10.50;99.90;;;;;;5034572;28;19912;-70
2022/10/11 01:12:23;;;;;;;;;;;10.50;99.90;;;;;;5035376;28;19909;-70
2022/10/11 01:15:09;;;;;;;;;;;10.40;99.90;;;;;;5034610;28;20308;-70
2022/10/11 01:17:42;;;;;;;;;;;10.40;99.90;;;;;;5035010;28;19905;-70
2022/10/11 01:20:11;;;;;;;;;;;10.30;99.90;;;;;;5035254;28;19930;-70
2022/10/11 01:22:45;;;;;;;;;;;10.30;99.90;;;;;;5035077;28;20357;-70
2022/10/11 01:25:35;;;;;;;;;;;10.20;99.90;;;;;;5034607;28;19905;-70
2022/10/11 01:28:06;;;;;;;;;;;10.20;99.90;;;;;;5034666;28;19971;-70
2022/10/11 01:30:33;;;;;;;;;;;10.10;99.90;;;;;;5034456;28;19955;-70
2022/10/11 01:33:11;;;;;;;;;;;10.10;99.90;;;;;;5034365;28;19908;-70
2022/10/11 01:35:44;;;;;;;;;;;10.00;99.90;;;;;;5034370;28;19904;-70
2022/10/11 01:38:16;;;;;;;;;;;9.80;99.90;;;;;;5034281;28;19913;-70
2022/10/11 01:40:51;;;;;;;;;;;9.80;99.90;;;;;;5034394;28;19905;-70
2022/10/11 01:43:18;;;;;;;;;;;9.70;99.90;;;;;;5033964;28;19905;-70
2022/10/11 01:45:44;;;;;;;;;;;9.70;99.90;;;;;;5034214;28;20341;-70
2022/10/11 01:48:11;;;;;;;;;;;9.80;99.90;;;;;;5034465;28;19909;-70
2022/10/11 01:50:45;;;;;;;;;;;9.90;99.90;;;;;;5034124;28;19905;-68
2022/10/11 01:53:24;;;;;;;;;;;9.80;99.90;;;;;;5033919;28;19915;-70
2022/10/11 01:55:56;;;;;;;;;;;9.70;99.90;;;;;;5034038;28;19909;-70
2022/10/11 01:58:35;;;;;;;;;;;9.70;99.90;;;;;;5033996;28;19971;-70
2022/10/11 02:01:00;;;;;;;;;;;9.70;99.90;;;;;;5034520;28;19909;-70
2022/10/11 02:03:34;;;;;;;;;;;9.80;99.90;;;;;;5033802;28;20361;-70
2022/10/11 02:06:17;;;;;;;;;;;9.80;99.90;;;;;;5033900;28;19932;-69
2022/10/11 02:08:46;;;;;;;;;;;9.80;99.90;;;;;;5033868;28;19998;-69
2022/10/11 02:11:11;;;;;;;;;;;9.70;99.90;;;;;;5033758;28;20280;-70
2022/10/11 02:13:39;;;;;;;;;;;9.70;99.90;;;;;;5033499;28;19920;-69
2022/10/11 02:16:06;;;;;;;;;;;9.70;99.90;;;;;;5033681;28;19905;-70
2022/10/11 02:18:35;;;;;;;;;;;9.70;99.90;;;;;;5033737;28;19905;-69
2022/10/11 02:21:02;;;;;;;;;;;9.70;99.90;;;;;;5033009;28;19943;-69
2022/10/11 02:23:36;;;;;;;;;;;9.60;99.90;;;;;;5033603;28;19967;-69
2022/10/11 02:26:03;;;;;;;;;;;9.60;99.90;;;;;;5033627;28;20000;-70
2022/10/11 02:28:31;;;;;;;;;;;9.50;99.90;;;;;;5033361;28;20337;-70
2022/10/11 02:30:59;;;;;;;;;;;9.50;99.90;;;;;;5033538;28;20365;-69
2022/10/11 02:33:34;;;;;;;;;;;9.60;99.90;;;;;;5033647;28;20008;-69
2022/10/11 02:36:04;;;;;;;;;;;9.50;99.90;;;;;;5033522;28;19967;-70
2022/10/11 02:38:36;;;;;;;;;;;9.50;99.90;;;;;;5033366;28;19912;-70
2022/10/11 02:41:09;;;;;;;;;;;9.40;99.90;;;;;;5033535;28;19905;-70
2022/10/11 02:43:38;;;;;;;;;;;9.40;99.90;;;;;;5033378;28;19908;-70
2022/10/11 02:46:05;;;;;;;;;;;9.40;99.90;;;;;;5033703;28;19991;-70
2022/10/11 02:48:32;;;;;;;;;;;9.50;99.90;;;;;;5033457;28;19951;-70
2022/10/11 02:50:58;;;;;;;;;;;9.50;99.90;;;;;;5033401;28;20281;-70
2022/10/11 02:53:24;;;;;;;;;;;9.50;99.90;;;;;;5033214;28;19909;-70
2022/10/11 02:55:51;;;;;;;;;;;9.50;99.90;;;;;;5033859;28;19909;-70
2022/10/11 02:58:16;;;;;;;;;;;9.50;99.90;;;;;;5033817;28;20239;-69
2022/10/11 03:00:42;;;;;;;;;;;9.50;99.90;;;;;;5033848;28;19909;-69
2022/10/11 03:03:07;;;;;;;;;;;9.50;99.90;;;;;;5033158;28;20344;-70
2022/10/11 03:05:39;;;;;;;;;;;9.50;99.90;;;;;;5033510;28;19916;-70
2022/10/11 03:08:08;;;;;;;;;;;9.50;99.90;;;;;;5033754;28;19905;-70
2022/10/11 03:10:35;;;;;;;;;;;9.30;99.90;;;;;;5033308;28;19909;-70
2022/10/11 03:13:00;;;;;;;;;;;9.30;99.90;;;;;;5031818;28;20403;-70
2022/10/11 03:15:26;;;;;;;;;;;9.30;99.90;;;;;;5032913;28;19905;-70
2022/10/11 03:17:51;;;;;;;;;;;9.30;99.90;;;;;;5033117;28;20411;-70
2022/10/11 03:20:17;;;;;;;;;;;9.30;99.90;;;;;;5033375;28;19916;-70
2022/10/11 03:22:42;;;;;;;;;;;9.20;99.90;;;;;;5033068;28;19916;-70
2022/10/11 03:25:08;;;;;;;;;;;9.10;99.90;;;;;;5031841;28;19909;-70
2022/10/11 03:27:33;;;;;;;;;;;9.00;99.90;;;;;;5033019;28;20277;-70
2022/10/11 03:29:59;;;;;;;;;;;9.00;99.90;;;;;;5032768;28;19909;-70
2022/10/11 03:32:25;;;;;;;;;;;9.10;99.90;;;;;;5034578;28;19975;-70
2022/10/11 03:34:50;;;;;;;;;;;9.20;99.90;;;;;;5036892;28;19920;-70
2022/10/11 03:37:16;;;;;;;;;;;9.20;99.90;;;;;;5036431;28;19913;-70
2022/10/11 03:39:42;;;;;;;;;;;9.20;99.90;;;;;;5036595;28;19912;-70
2022/10/11 03:42:07;;;;;;;;;;;9.20;99.90;;;;;;5036415;28;19909;-70
2022/10/11 03:44:33;;;;;;;;;;;9.20;99.90;;;;;;5036155;28;20008;-70
2022/10/11 03:46:58;;;;;;;;;;;9.20;99.90;;;;;;5035138;28;19909;-70
2022/10/11 03:49:24;;;;;;;;;;;9.20;99.90;;;;;;5036633;28;19963;-69
2022/10/11 03:51:49;;;;;;;;;;;9.10;99.90;;;;;;5036921;28;19909;-70
2022/10/11 03:54:15;;;;;;;;;;;9.10;99.90;;;;;;5035024;28;20353;-70
2022/10/11 03:56:40;;;;;;;;;;;9.10;99.90;;;;;;5036358;28;19952;-70
2022/10/11 03:59:06;;;;;;;;;;;9.10;99.90;;;;;;5036303;28;19913;-70
2022/10/11 04:01:36;;;;;;;;;;;9.10;99.90;;;;;;5036066;28;20404;-69
2022/10/11 04:04:02;;;;;;;;;;;9.20;99.90;;;;;;5036370;28;19966;-70
2022/10/11 04:06:27;;;;;;;;;;;9.20;99.90;;;;;;5036321;28;19983;-70
2022/10/11 04:08:53;;;;;;;;;;;9.20;99.90;;;;;;5036332;28;20387;-70
2022/10/11 04:11:19;;;;;;;;;;;9.20;99.90;;;;;;5036191;28;20400;-70
2022/10/11 04:13:44;;;;;;;;;;;9.30;99.90;;;;;;5035797;28;19909;-70
2022/10/11 04:16:10;;;;;;;;;;;9.30;99.90;;;;;;5034771;28;19936;-70
2022/10/11 04:18:36;;;;;;;;;;;9.30;99.90;;;;;;5036072;28;19909;-69
2022/10/11 04:21:01;;;;;;;;;;;9.30;99.90;;;;;;5036134;28;19955;-69
2022/10/11 04:23:28;;;;;;;;;;;9.30;99.90;;;;;;5035929;28;19905;-70
2022/10/11 04:25:54;;;;;;;;;;;9.30;99.90;;;;;;5035185;28;19996;-70
2022/10/11 04:28:19;;;;;;;;;;;9.20;99.90;;;;;;5034847;28;20000;-70
2022/10/11 04:30:45;;;;;;;;;;;9.20;99.90;;;;;;5035042;28;19949;-70
2022/10/11 04:33:11;;;;;;;;;;;9.30;99.90;;;;;;5034845;28;19919;-70
2022/10/11 04:35:36;;;;;;;;;;;9.30;99.90;;;;;;5035235;28;20398;-70
2022/10/11 04:38:02;;;;;;;;;;;9.30;99.90;;;;;;5035958;28;19917;-70
2022/10/11 04:40:27;;;;;;;;;;;9.30;99.90;;;;;;5035700;28;20273;-70
2022/10/11 04:42:53;;;;;;;;;;;9.40;99.90;;;;;;5035607;28;19912;-68
2022/10/11 04:45:19;;;;;;;;;;;9.40;99.90;;;;;;5034691;28;19916;-69
2022/10/11 04:47:45;;;;;;;;;;;9.40;99.90;;;;;;5032671;28;19913;-68
2022/10/11 04:50:11;;;;;;;;;;;9.40;99.90;;;;;;5035109;28;19913;-68
2022/10/11 04:52:36;;;;;;;;;;;9.40;99.90;;;;;;5033835;28;19909;-68
2022/10/11 04:55:02;;;;;;;;;;;9.50;99.90;;;;;;5036019;28;19916;-68
2022/10/11 04:57:28;;;;;;;;;;;9.50;99.90;;;;;;5035131;28;19906;-68
2022/10/11 04:59:53;;;;;;;;;;;9.50;99.90;;;;;;5033536;28;19909;-68
2022/10/11 05:02:19;;;;;;;;;;;9.60;99.90;;;;;;5035239;28;19909;-68
2022/10/11 05:04:45;;;;;;;;;;;9.60;99.90;;;;;;5034995;28;19952;-68
2022/10/11 05:07:10;;;;;;;;;;;9.70;99.90;;;;;;5034995;28;19967;-68
2022/10/11 05:09:36;;;;;;;;;;;9.70;99.90;;;;;;5034914;28;19963;-68
2022/10/11 05:12:01;;;;;;;;;;;9.70;99.90;;;;;;5034755;28;19909;-68
2022/10/11 05:14:27;;;;;;;;;;;9.80;99.90;;;;;;5034677;28;19967;-68
2022/10/11 05:16:52;;;;;;;;;;;9.80;99.90;;;;;;5035301;28;19905;-68
2022/10/11 05:19:18;;;;;;;;;;;9.80;99.90;;;;;;5034644;28;20361;-68
2022/10/11 05:21:44;;;;;;;;;;;9.80;99.90;;;;;;5034728;28;19913;-68
2022/10/11 05:24:09;;;;;;;;;;;9.80;99.90;;;;;;5034619;28;19939;-68
2022/10/11 05:26:35;;;;;;;;;;;9.80;99.90;;;;;;5034601;28;20372;-68
2022/10/11 05:29:01;;;;;;;;;;;9.80;99.90;;;;;;5034301;28;20284;-68
2022/10/11 05:31:26;;;;;;;;;;;9.90;99.90;;;;;;5034532;28;19987;-68
2022/10/11 05:33:52;;;;;;;;;;;9.80;99.90;;;;;;5034315;28;20094;-68
2022/10/11 05:36:17;;;;;;;;;;;9.80;99.90;;;;;;5034671;28;19909;-68
2022/10/11 05:38:43;;;;;;;;;;;9.80;99.90;;;;;;5032970;28;19916;-68
2022/10/11 05:41:10;;;;;;;;;;;9.70;99.90;;;;;;5034221;28;19905;-68
2022/10/11 05:43:36;;;;;;;;;;;9.70;99.90;;;;;;5034087;28;19905;-68
2022/10/11 05:46:01;;;;;;;;;;;9.70;99.90;;;;;;5034580;28;20265;-68
2022/10/11 05:48:27;;;;;;;;;;;9.60;99.90;;;;;;5033104;28;19922;-68
2022/10/11 05:51:00;;;;;;;;;;;9.60;99.90;;;;;;5032933;28;19905;-68
2022/10/11 05:53:26;;;;;;;;;;;9.70;99.90;;;;;;5032910;28;19913;-68
2022/10/11 05:55:52;;;;;;;;;;;9.70;99.90;;;;;;5033120;28;20403;-68
2022/10/11 05:58:17;;;;;;;;;;;9.70;99.90;;;;;;5033878;28;20262;-68
2022/10/11 06:00:43;;;;;;;;;;;9.80;99.90;;;;;;5032672;28;20456;-68
2022/10/11 06:03:10;;;;;;;;;;;9.70;99.90;;;;;;5033749;28;20305;-68
2022/10/11 06:05:36;;;;;;;;;;;9.80;99.90;;;;;;5034468;28;20012;-68
2022/10/11 06:08:03;;;;;;;;;;;9.80;99.90;;;;;;5034151;28;20332;-68
2022/10/11 06:10:28;;;;;;;;;;;9.70;99.90;;;;;;5034072;28;19912;-68
2022/10/11 06:12:54;;;;;;;;;;;9.70;99.90;;;;;;5033839;28;20316;-68
2022/10/11 06:15:19;;;;;;;;;;;9.80;99.90;;;;;;5033555;28;19915;-68
2022/10/11 06:17:48;;;;;;;;;;;9.80;99.90;;;;;;5034047;28;19983;-68
2022/10/11 06:20:13;;;;;;;;;;;9.90;99.90;;;;;;5033941;28;19936;-68
2022/10/11 06:22:39;;;;;;;;;;;9.90;99.90;;;;;;5033608;28;19909;-68
2022/10/11 06:25:05;;;;;;;;;;;9.90;99.90;;;;;;5034188;28;20425;-68
2022/10/11 06:27:30;;;;;;;;;;;10.00;99.90;;;;;;5033951;28;19913;-69
2022/10/11 06:29:56;;;;;;;;;;;10.00;99.90;;;;;;5033500;28;19912;-68
2022/10/11 06:32:21;;;;;;;;;;;10.00;99.90;;;;;;5033545;28;20047;-68
2022/10/11 06:34:47;;;;;;;;;;;10.00;99.90;;;;;;5034007;28;19920;-68
2022/10/11 06:37:12;;;;;;;;;;;10.00;99.90;;;;;;5033408;28;20011;-68
2022/10/11 06:39:38;;;;;;;;;;;10.00;99.90;;;;;;5034027;28;19959;-68
2022/10/11 06:42:03;;;;;;;;;;;10.10;99.90;;;;;;5033610;28;19948;-68
2022/10/11 06:44:29;;;;;;;;;;;10.10;99.90;;;;;;5033257;28;19994;-68
2022/10/11 06:46:55;;;;;;;;;;;10.10;99.90;;;;;;5033727;28;19913;-68
2022/10/11 06:49:20;;;;;;;;;;;10.20;99.90;;;;;;5033675;28;19919;-68
2022/10/11 06:51:46;;;;;;;;;;;10.20;99.90;;;;;;5033392;28;19909;-68
2022/10/11 06:54:11;;;;;;;;;;;10.20;99.90;;;;;;5033214;28;19920;-68
2022/10/11 06:56:37;;;;;;;;;;;10.30;99.90;;;;;;5033293;28;19948;-68
2022/10/11 06:59:03;;;;;;;;;;;10.30;99.90;;;;;;5033120;28;19909;-68
2022/10/11 07:01:29;;;;;;;;;;;10.30;99.90;;;;;;5033285;28;19909;-68
2022/10/11 07:03:55;;;;;;;;;;;10.40;99.90;;;;;;5033438;28;20361;-68
2022/10/11 07:06:22;;;;;;;;;;;10.40;99.90;;;;;;5033324;28;20048;-68
2022/10/11 07:08:47;;;;;;;;;;;10.40;99.90;;;;;;5037244;28;19905;-68
2022/10/11 07:11:14;;;;;;;;;;;10.40;99.90;;;;;;5037148;28;20376;-68
2022/10/11 07:13:40;;;;;;;;;;;10.50;99.90;;;;;;5036977;28;19917;-68
2022/10/11 07:16:10;;;;;;;;;;;10.50;99.90;;;;;;5036831;28;19909;-68
2022/10/11 07:18:36;;;;;;;;;;;10.60;99.90;;;;;;5036993;28;19905;-68
2022/10/11 07:21:02;;;;;;;;;;;10.60;99.90;;;;;;5036911;28;20285;-68
2022/10/11 07:23:28;;;;;;;;;;;10.60;99.90;;;;;;5037132;28;20265;-68
2022/10/11 07:25:54;;;;;;;;;;;10.60;99.90;;;;;;5036860;28;19924;-68
2022/10/11 07:28:20;;;;;;;;;;;10.70;99.90;;;;;;5037155;28;20338;-68
2022/10/11 07:30:46;;;;;;;;;;;10.70;99.90;;;;;;5036611;28;19913;-68
2022/10/11 07:33:11;;;;;;;;;;;10.80;99.90;;;;;;5036856;28;19909;-68
2022/10/11 07:35:37;;;;;;;;;;;10.80;99.90;;;;;;5036948;28;19911;-68
2022/10/11 07:38:03;;;;;;;;;;;10.90;99.90;;;;;;5036510;28;19917;-68
2022/10/11 07:40:28;;;;;;;;;;;10.90;99.90;;;;;;5030684;28;19907;-68
2022/10/11 07:42:55;;;;;;;;;;;11.00;99.90;;;;;;5016765;28;19916;-68
2022/10/11 07:45:21;;;;;;;;;;;11.00;99.90;;;;;;5016550;28;20285;-68
2022/10/11 07:47:46;;;;;;;;;;;11.00;99.90;;;;;;5016711;28;19916;-68
2022/10/11 07:50:12;;;;;;;;;;;11.10;99.90;;;;;;5016626;28;19910;-68
2022/10/11 07:52:38;;;;;;;;;;;11.10;99.90;;;;;;5015597;28;19987;-68
2022/10/11 07:55:03;;;;;;;;;;;11.10;99.90;;;;;;5016433;28;19913;-69
2022/10/11 07:57:29;;;;;;;;;;;11.20;99.90;;;;;;5016513;28;19910;-69
2022/10/11 07:59:55;;;;;;;;;;;11.20;99.90;;;;;;5016218;28;19952;-69
2022/10/11 08:02:20;;;;;;;;;;;11.30;99.90;;;;;;5016876;28;19913;-69
2022/10/11 08:04:46;;;;;;;;;;;11.30;99.90;;;;;;5016486;28;19992;-69
2022/10/11 08:07:11;;;;;;;;;;;11.40;99.90;;;;;;5016346;28;19909;-69
2022/10/11 08:09:37;;;;;;;;;;;11.40;99.90;;;;;;5016289;28;19914;-70
2022/10/11 08:12:02;;;;;;;;;;;11.50;99.90;;;;;;5034723;28;19909;-69
2022/10/11 08:14:28;;;;;;;;;;;11.60;99.90;;;;;;5035818;28;20327;-68
2022/10/11 08:16:53;;;;;;;;;;;11.60;99.90;;;;;;5035975;28;19944;-70
2022/10/11 08:19:19;;;;;;;;;;;11.70;99.90;;;;;;5034881;28;20277;-70
2022/10/11 08:21:45;;;;;;;;;;;11.80;99.90;;;;;;5034579;28;20336;-70
2022/10/11 08:24:13;;;;;;;;;;;11.80;99.90;;;;;;5035796;28;19913;-69
2022/10/11 08:26:39;;;;;;;;;;;11.90;99.90;;;;;;5035921;28;19909;-69
2022/10/11 08:29:05;;;;;;;;;;;11.90;99.90;;;;;;5035423;28;19905;-68
2022/10/11 08:31:32;;;;;;;;;;;12.00;99.90;;;;;;5036233;28;19975;-70
2022/10/11 08:33:57;;;;;;;;;;;12.00;99.90;;;;;;5035478;28;20429;-70
2022/10/11 08:36:23;;;;;;;;;;;12.10;99.90;;;;;;5035475;28;19999;-70
2022/10/11 08:38:48;;;;;;;;;;;12.20;99.90;;;;;;5036110;28;19913;-69
2022/10/11 08:41:29;;;;;;;;;;;12.20;99.90;;;;;;5035405;28;19909;-69
2022/10/11 08:44:03;;;;;;;;;;;12.30;99.90;;;;;;5035283;28;20407;-70
2022/10/11 08:46:31;;;;;;;;;;;12.30;99.90;;;;;;5035345;28;19905;-69
2022/10/11 08:48:56;;;;;;;;;;;12.40;99.90;;;;;;5035542;28;20308;-69
2022/10/11 08:51:29;;;;;;;;;;;12.50;99.90;;;;;;5035311;28;20011;-69
2022/10/11 08:53:57;;;;;;;;;;;12.50;99.90;;;;;;5035091;28;19909;-70
2022/10/11 08:56:25;;;;;;;;;;;12.60;99.90;;;;;;5035139;28;19990;-69
2022/10/11 08:58:54;;;;;;;;;;;12.60;99.90;;;;;;5033853;28;19909;-69
2022/10/11 09:01:22;;;;;;;;;;;12.70;99.90;;;;;;5034902;28;19936;-69
2022/10/11 09:03:48;;;;;;;;;;;12.80;99.90;;;;;;5035264;28;19949;-70
2022/10/11 09:06:18;;;;;;;;;;;12.80;99.90;;;;;;5035029;28;20360;-69
2022/10/11 09:08:44;;;;;;;;;;;12.90;99.90;;;;;;5034970;28;20319;-70
2022/10/11 09:11:16;;;;;;;;;;;13.00;99.90;;;;;;5034839;28;19909;-69
2022/10/11 09:13:51;;;;;;;;;;;13.10;99.90;;;;;;5035295;28;19919;-69
2022/10/11 09:16:29;;;;;;;;;;;13.10;99.90;;;;;;5033340;28;19999;-69
2022/10/11 09:19:13;;;;;;;;;;;13.20;99.90;;;;;;5034702;28;19905;-70
2022/10/11 09:21:44;;;;;;;;;;;13.20;99.90;;;;;;5034694;28;19959;-69
2022/10/11 09:24:27;;;;;;;;;;;13.30;99.90;;;;;;5034597;28;19905;-69
2022/10/11 09:26:55;;;;;;;;;;;13.30;99.90;;;;;;5033314;28;19905;-69
2022/10/11 09:29:31;;;;;;;;;;;13.40;99.90;;;;;;5034117;28;20416;-69
2022/10/11 09:31:57;;;;;;;;;;;13.40;99.90;;;;;;5033229;28;19951;-69
2022/10/11 09:34:24;;;;;;;;;;;13.50;99.90;;;;;;5034436;28;19913;-69
2022/10/11 09:36:56;;;;;;;;;;;13.60;99.90;;;;;;5034546;28;19959;-69
2022/10/11 09:39:24;;;;;;;;;;;13.70;99.90;;;;;;5033160;28;19909;-69
2022/10/11 09:42:04;;;;;;;;;;;13.70;99.90;;;;;;5034264;28;19912;-70
2022/10/11 09:44:37;;;;;;;;;;;13.80;99.90;;;;;;5034102;28;19955;-69
2022/10/11 09:47:03;;;;;;;;;;;13.90;99.90;;;;;;5034269;28;19905;-70
2022/10/11 09:49:37;;;;;;;;;;;14.00;99.90;;;;;;5034432;28;20340;-70
2022/10/11 09:52:05;;;;;;;;;;;14.10;99.90;;;;;;5032818;28;20250;-70
2022/10/11 09:54:37;;;;;;;;;;;14.10;99.90;;;;;;5034062;28;20297;-70
2022/10/11 09:57:03;;;;;;;;;;;14.20;99.90;;;;;;5034195;28;19936;-69
2022/10/11 09:59:33;;;;;;;;;;;14.20;99.90;;;;;;5033841;28;20412;-69
2022/10/11 10:02:15;;;;;;;;;;;14.20;99.90;;;;;;5032999;28;20285;-69
2022/10/11 10:04:53;;;;;;;;;;;14.20;99.90;;;;;;5034275;28;19939;-70
2022/10/11 10:07:19;;;;;;;;;;;14.30;99.90;;;;;;5034504;28;19959;-70
2022/10/11 10:09:45;;;;;;;;;;;14.40;99.90;;;;;;5033856;28;20316;-70
2022/10/11 10:12:11;;;;;;;;;;;14.50;99.90;;;;;;5033833;28;19912;-70
2022/10/11 10:14:39;;;;;;;;;;;14.60;99.90;;;;;;5033817;28;20366;-70
2022/10/11 10:17:05;;;;;;;;;;;14.70;99.90;;;;;;5034042;28;19905;-70
2022/10/11 10:19:39;;;;;;;;;;;14.70;99.90;;;;;;5033725;28;19913;-70
2022/10/11 10:22:05;;;;;;;;;;;14.70;99.90;;;;;;5034173;28;19905;-69
2022/10/11 10:24:38;;;;;;;;;;;14.80;99.90;;;;;;5033664;28;19962;-70
2022/10/11 10:27:07;;;;;;;;;;;14.90;99.90;;;;;;5034213;28;19905;-71
2022/10/11 10:29:32;;;;;;;;;;;15.00;99.90;;;;;;5033629;28;19905;-70
2022/10/11 10:32:01;;;;;;;;;;;15.10;99.90;;;;;;5033853;28;19941;-70
2022/10/11 10:34:32;;;;;;;;;;;15.00;99.90;;;;;;5033748;28;19983;-70
2022/10/11 10:37:06;;;;;;;;;;;15.00;99.90;;;;;;5033615;28;19909;-70
2022/10/11 10:39:40;;;;;;;;;;;15.10;99.90;;;;;;5034000;28;19909;-69
2022/10/11 10:42:11;;;;;;;;;;;15.10;99.90;;;;;;5036656;28;19905;-69
2022/10/11 10:44:37;;;;;;;;;;;15.20;99.90;;;;;;5040086;28;19945;-68
2022/10/11 10:47:08;;;;;;;;;;;15.30;99.90;;;;;;5040322;28;19955;-68
2022/10/11 10:49:44;;;;;;;;;;;15.40;99.90;;;;;;5040364;28;19905;-69
2022/10/11 10:52:28;;;;;;;;;;;15.40;99.90;;;;;;5040244;28;20350;-69
2022/10/11 10:55:12;;;;;;;;;;;15.50;99.90;;;;;;5039950;28;19909;-69
2022/10/11 10:58:01;;;;;;;;;;;15.60;99.90;;;;;;5039992;28;19905;-69
2022/10/11 11:00:29;;;;;;;;;;;15.80;99.90;;;;;;5039902;28;19905;-69
2022/10/11 11:02:57;;;;;;;;;;;15.90;99.90;;;;;;5040058;28;20327;-69
2022/10/11 11:05:22;;;;;;;;;;;16.00;99.90;;;;;;5040158;28;19947;-69
2022/10/11 11:08:06;;;;;;;;;;;16.00;99.90;;;;;;5040029;28;19944;-69
2022/10/11 11:10:42;;;;;;;;;;;16.10;99.90;;;;;;5039964;28;19912;-69
2022/10/11 11:13:27;;;;;;;;;;;16.10;99.90;;;;;;5039671;28;19909;-69
2022/10/11 11:16:02;;;;;;;;;;;16.20;99.90;;;;;;5039599;28;19967;-69
2022/10/11 11:18:42;;;;;;;;;;;16.30;99.90;;;;;;5039674;28;19908;-69
2022/10/11 11:21:08;;;;;;;;;;;16.30;99.90;;;;;;5039675;28;20360;-69
2022/10/11 11:23:36;;;;;;;;;;;16.30;99.90;;;;;;5039669;28;19955;-69
2022/10/11 11:26:11;;;;;;;;;;;16.30;99.90;;;;;;5039679;28;19905;-69
2022/10/11 11:28:36;;;;;;;;;;;16.30;99.90;;;;;;5040010;28;19905;-69
2022/10/11 11:31:02;;;;;;;;;;;16.30;99.90;;;;;;5039410;28;20250;-69
2022/10/11 11:33:46;;;;;;;;;;;16.30;99.90;;;;;;5039532;28;19931;-69
2022/10/11 11:36:15;;;;;;;;;;;16.30;99.90;;;;;;5039609;28;19958;-69
2022/10/11 11:38:41;;;;;;;;;;;16.20;99.90;;;;;;5039520;28;20296;-69
2022/10/11 11:41:12;;;;;;;;;;;16.20;99.90;;;;;;5039463;28;19905;-69
2022/10/11 11:43:41;;;;;;;;;;;16.20;99.90;;;;;;5039584;28;19905;-69
2022/10/11 11:46:16;;;;;;;;;;;16.20;99.90;;;;;;5037987;28;19905;-69
2022/10/11 11:48:42;;;;;;;;;;;16.20;99.90;;;;;;5039945;28;20292;-69
2022/10/11 11:51:10;;;;;;;;;;;16.20;99.90;;;;;;5039482;28;19912;-69
2022/10/11 11:53:54;;;;;;;;;;;16.20;99.90;;;;;;5037953;28;19909;-69
2022/10/11 11:56:28;;;;;;;;;;;16.20;99.90;;;;;;5036296;28;19956;-69
2022/10/11 11:58:59;;;;;;;;;;;16.30;99.90;;;;;;5036288;28;19905;-69
2022/10/11 12:01:41;;;;;;;;;;;16.20;99.90;;;;;;5036039;28;19912;-69
2022/10/11 12:04:14;;;;;;;;;;;16.30;99.90;;;;;;5036119;28;19905;-69
2022/10/11 12:06:40;;;;;;;;;;;16.30;99.90;;;;;;5036417;28;19952;-68
2022/10/11 12:09:06;;;;;;;;;;;16.40;99.90;;;;;;5036098;28;19936;-68
2022/10/11 12:11:37;;;;;;;;;;;16.40;99.90;;;;;;5036223;28;19912;-69
2022/10/11 12:14:21;;;;;;;;;;;16.30;99.90;;;;;;5034573;28;19909;-69
2022/10/11 12:17:05;;;;;;;;;;;16.30;99.90;;;;;;5035677;28;19955;-70
2022/10/11 12:19:31;;;;;;;;;;;16.30;99.90;;;;;;5036196;28;19913;-70
2022/10/11 12:22:36;;;;;;;;;;;16.40;99.90;;;;;;5036082;28;19951;-70
2022/10/11 12:25:07;;;;;;;;;;;16.40;99.90;;;;;;5014617;28;19931;-70
2022/10/11 12:27:51;;;;;;;;;;;16.40;99.90;;;;;;5013932;28;20332;-70
2022/10/11 12:30:35;;;;;;;;;;;16.50;99.90;;;;;;5027224;28;20019;-70
2022/10/11 12:33:11;;;;;;;;;;;16.60;99.90;;;;;;5035492;28;20009;-69
2022/10/11 12:35:41;;;;;;;;;;;16.70;99.90;;;;;;5035691;28;19905;-69
2022/10/11 12:38:13;;;;;;;;;;;16.80;99.90;;;;;;5035440;28;19944;-69
2022/10/11 12:40:40;;;;;;;;;;;16.90;99.90;;;;;;5034116;28;19939;-69
2022/10/11 12:43:09;;;;;;;;;;;17.10;99.90;;;;;;5035387;28;19905;-69
2022/10/11 12:45:34;;;;;;;;;;;17.20;99.90;;;;;;5035216;28;19999;-69
2022/10/11 12:48:29;;;;;;;;;;;17.20;99.90;;;;;;5035657;28;19959;-69
2022/10/11 12:51:14;;;;;;;;;;;17.30;99.90;;;;;;5030349;28;20227;-70
2022/10/11 12:53:58;;;;;;;;;;;17.40;99.90;;;;;;5033856;28;19913;-69
2022/10/11 12:56:42;;;;;;;;;;;17.60;99.90;;;;;;5035176;28;19905;-70
2022/10/11 12:59:14;;;;;;;;;;;17.70;99.90;;;;;;5035364;28;19997;-70
2022/10/11 13:01:47;;;;;;;;;;;17.90;99.90;;;;;;5034880;28;19905;-69
2022/10/11 13:04:15;;;;;;;;;;;18.00;99.90;;;;;;5034641;28;20011;-71
2022/10/11 13:06:48;;;;;;;;;;;18.00;99.90;;;;;;5035163;28;19909;-71
2022/10/11 13:09:34;;;;;;;;;;;18.00;99.90;;;;;;5035294;28;19912;-71
2022/10/11 13:11:59;;;;;;;;;;;18.00;99.90;;;;;;5035109;28;19912;-70
2022/10/11 13:14:26;;;;;;;;;;;18.10;99.90;;;;;;5034817;28;19905;-71
2022/10/11 13:17:00;;;;;;;;;;;18.10;99.90;;;;;;5034517;28;20011;-71
2022/10/11 13:19:26;;;;;;;;;;;18.10;99.90;;;;;;5034811;28;19905;-71
2022/10/11 13:21:53;;;;;;;;;;;18.10;99.90;;;;;;5034952;28;19909;-71
2022/10/11 13:24:19;;;;;;;;;;;18.20;99.90;;;;;;5033346;28;19913;-71
2022/10/11 13:26:46;;;;;;;;;;;18.20;99.90;;;;;;5034610;28;20353;-71
2022/10/11 13:29:22;;;;;;;;;;;18.20;99.90;;;;;;5034844;28;20326;-71
2022/10/11 13:31:48;;;;;;;;;;;18.10;99.90;;;;;;5034400;28;19905;-73
2022/10/11 13:34:13;;;;;;;;;;;18.10;99.90;;;;;;5034379;28;20357;-72
2022/10/11 13:36:39;;;;;;;;;;;18.10;99.90;;;;;;5034480;28;19971;-74
2022/10/11 13:39:06;;;;;;;;;;;18.10;99.90;;;;;;5034344;28;19911;-73
2022/10/11 13:41:33;;;;;;;;;;;18.10;99.90;;;;;;5034262;28;20036;-73
2022/10/11 13:43:59;;;;;;;;;;;18.20;99.90;;;;;;5034186;28;19904;-73
2022/10/11 13:46:26;;;;;;;;;;;18.20;99.90;;;;;;5032724;28;20266;-73
2022/10/11 13:48:56;;;;;;;;;;;18.30;99.90;;;;;;5034492;28;19905;-73
2022/10/11 13:51:27;;;;;;;;;;;18.30;99.90;;;;;;5034146;28;19909;-73
2022/10/11 13:53:57;;;;;;;;;;;18.40;99.90;;;;;;5032712;28;19908;-73
2022/10/11 13:56:23;;;;;;;;;;;18.30;99.90;;;;;;5034367;28;19912;-73
2022/10/11 13:58:51;;;;;;;;;;;18.40;99.90;;;;;;5034069;28;19905;-73
2022/10/11 14:01:19;;;;;;;;;;;18.40;99.90;;;;;;5033671;28;19905;-73
2022/10/11 14:03:46;;;;;;;;;;;18.40;99.90;;;;;;5033772;28;19905;-73
2022/10/11 14:06:12;;;;;;;;;;;18.40;99.90;;;;;;5033861;28;19912;-73
2022/10/11 14:08:40;;;;;;;;;;;18.40;99.90;;;;;;5034107;28;20277;-73
2022/10/11 14:11:07;;;;;;;;;;;18.40;99.90;;;;;;5034065;28;19905;-73
2022/10/11 14:13:37;;;;;;;;;;;18.30;99.90;;;;;;5033778;28;19913;-72
2022/10/11 14:16:05;;;;;;;;;;;18.20;99.90;;;;;;5033330;28;19905;-73
2022/10/11 14:18:39;;;;;;;;;;;18.20;99.90;;;;;;5034217;28;19916;-68
2022/10/11 14:21:23;;;;;;;;;;;18.20;99.30;;;;;;5033850;28;19928;-68
2022/10/11 14:23:49;;;;;;;;;;;18.10;98.80;;;;;;5033650;28;19909;-69
2022/10/11 14:26:15;;;;;;;;;;;18.10;99.90;;;;;;5033642;28;19905;-69
2022/10/11 14:28:41;;;;;;;;;;;18.00;99.40;;;;;;5033537;28;19917;-67
2022/10/11 14:31:07;;;;;;;;;;;18.00;99.70;;;;;;5033438;28;19936;-68